sensor_id;sensor_type;location;lat;lon;timestamp;temperature;humidity
41926;DHT22;27615;51.826;5.692;2022-09-09T00:02:14;15.20;99.90
41926;DHT22;27615;51.826;5.692;2022-09-09T00:05:18;15.30;99.90
41926;DHT22;27615;51.826;5.692;2022-09-09T00:07:51;15.20;99.90
41926;DHT22;27615;51.826;5.692;2022-09-09T00:10:29;15.20;99.90
41926;DHT22;27615;51.826;5.692;2022-09-09T00:15:36;15.10;99.90
41926;DHT22;27615;51.826;5.692;2022-09-09T00:21:11;15.00;99.90
41926;DHT22;27615;51.826;5.692;2022-09-09T00:23:39;15.00;99.90
41926;DHT22;27615;51.826;5.692;2022-09-09T00:26:16;15.00;99.90
41926;DHT22;27615;51.826;5.692;2022-09-09T00:31:54;15.00;99.90
41926;DHT22;27615;51.826;5.692;2022-09-09T00:34:23;15.00;99.90
41926;DHT22;27615;51.826;5.692;2022-09-09T00:36:52;15.00;99.90
41926;DHT22;27615;51.826;5.692;2022-09-09T00:39:24;14.90;99.90
41926;DHT22;27615;51.826;5.692;2022-09-09T00:44:56;14.90;99.90
41926;DHT22;27615;51.826;5.692;2022-09-09T00:47:45;14.90;99.90
41926;DHT22;27615;51.826;5.692;2022-09-09T00:50:39;14.80;99.90
41926;DHT22;27615;51.826;5.692;2022-09-09T00:53:22;14.80;99.90
41926;DHT22;27615;51.826;5.692;2022-09-09T00:56:02;14.70;99.90
41926;DHT22;27615;51.826;5.692;2022-09-09T00:58:30;14.70;99.90
41926;DHT22;27615;51.826;5.692;2022-09-09T01:01:05;14.60;99.90
41926;DHT22;27615;51.826;5.692;2022-09-09T01:03:37;14.60;99.90
41926;DHT22;27615;51.826;5.692;2022-09-09T01:09:45;14.60;99.90
41926;DHT22;27615;51.826;5.692;2022-09-09T01:12:14;14.50;99.90
41926;DHT22;27615;51.826;5.692;2022-09-09T01:14:42;14.50;99.90
41926;DHT22;27615;51.826;5.692;2022-09-09T01:17:25;14.40;99.90
41926;DHT22;27615;51.826;5.692;2022-09-09T01:20:16;14.40;99.90
41926;DHT22;27615;51.826;5.692;2022-09-09T01:28:13;14.40;99.90
41926;DHT22;27615;51.826;5.692;2022-09-09T01:30:41;14.30;99.90
41926;DHT22;27615;51.826;5.692;2022-09-09T01:33:13;14.30;99.90
41926;DHT22;27615;51.826;5.692;2022-09-09T01:35:49;14.30;99.90
41926;DHT22;27615;51.826;5.692;2022-09-09T01:38:19;14.30;99.90
41926;DHT22;27615;51.826;5.692;2022-09-09T01:40:44;14.30;99.90
41926;DHT22;27615;51.826;5.692;2022-09-09T01:43:10;14.20;99.90
41926;DHT22;27615;51.826;5.692;2022-09-09T01:45:37;14.20;99.90
41926;DHT22;27615;51.826;5.692;2022-09-09T01:48:06;14.20;99.90
41926;DHT22;27615;51.826;5.692;2022-09-09T01:50:54;14.20;99.90
41926;DHT22;27615;51.826;5.692;2022-09-09T01:59:13;14.10;99.90
41926;DHT22;27615;51.826;5.692;2022-09-09T02:04:24;14.10;99.90
41926;DHT22;27615;51.826;5.692;2022-09-09T02:07:01;14.10;99.90
41926;DHT22;27615;51.826;5.692;2022-09-09T02:09:30;14.10;99.90
41926;DHT22;27615;51.826;5.692;2022-09-09T02:12:11;14.10;99.90
41926;DHT22;27615;51.826;5.692;2022-09-09T02:14:46;14.00;99.90
41926;DHT22;27615;51.826;5.692;2022-09-09T02:17:22;14.00;99.90
41926;DHT22;27615;51.826;5.692;2022-09-09T02:20:06;14.00;99.90
41926;DHT22;27615;51.826;5.692;2022-09-09T02:22:43;14.00;99.90
41926;DHT22;27615;51.826;5.692;2022-09-09T02:25:18;14.10;99.90
41926;DHT22;27615;51.826;5.692;2022-09-09T02:28:07;14.00;99.90
41926;DHT22;27615;51.826;5.692;2022-09-09T02:30:34;14.00;99.90
41926;DHT22;27615;51.826;5.692;2022-09-09T02:33:13;14.00;99.90
41926;DHT22;27615;51.826;5.692;2022-09-09T02:36:20;14.00;99.90
41926;DHT22;27615;51.826;5.692;2022-09-09T02:38:48;14.00;99.90
41926;DHT22;27615;51.826;5.692;2022-09-09T02:41:23;14.00;99.90
41926;DHT22;27615;51.826;5.692;2022-09-09T02:43:49;14.00;99.90
41926;DHT22;27615;51.826;5.692;2022-09-09T02:46:48;14.00;99.90
41926;DHT22;27615;51.826;5.692;2022-09-09T02:49:40;14.00;99.90
41926;DHT22;27615;51.826;5.692;2022-09-09T02:52:14;14.00;99.90
41926;DHT22;27615;51.826;5.692;2022-09-09T02:54:43;13.90;99.90
41926;DHT22;27615;51.826;5.692;2022-09-09T02:57:27;13.90;99.90
41926;DHT22;27615;51.826;5.692;2022-09-09T02:59:57;14.00;99.90
41926;DHT22;27615;51.826;5.692;2022-09-09T03:02:28;14.00;99.90
41926;DHT22;27615;51.826;5.692;2022-09-09T03:04:57;14.00;99.90
41926;DHT22;27615;51.826;5.692;2022-09-09T03:07:23;14.00;99.90
41926;DHT22;27615;51.826;5.692;2022-09-09T03:09:49;14.00;99.90
41926;DHT22;27615;51.826;5.692;2022-09-09T03:12:14;13.90;99.90
41926;DHT22;27615;51.826;5.692;2022-09-09T03:14:40;13.90;99.90
41926;DHT22;27615;51.826;5.692;2022-09-09T03:17:09;13.90;99.90
41926;DHT22;27615;51.826;5.692;2022-09-09T03:19:42;13.90;99.90
41926;DHT22;27615;51.826;5.692;2022-09-09T03:22:10;13.90;99.90
41926;DHT22;27615;51.826;5.692;2022-09-09T03:24:36;13.90;99.90
41926;DHT22;27615;51.826;5.692;2022-09-09T03:27:25;13.90;99.90
41926;DHT22;27615;51.826;5.692;2022-09-09T03:30:04;14.00;99.90
41926;DHT22;27615;51.826;5.692;2022-09-09T03:32:35;13.90;99.90
41926;DHT22;27615;51.826;5.692;2022-09-09T03:35:11;13.90;99.90
41926;DHT22;27615;51.826;5.692;2022-09-09T03:37:54;14.00;99.90
41926;DHT22;27615;51.826;5.692;2022-09-09T03:43:51;14.00;99.90
41926;DHT22;27615;51.826;5.692;2022-09-09T03:46:18;13.90;99.90
41926;DHT22;27615;51.826;5.692;2022-09-09T03:48:44;13.90;99.90
41926;DHT22;27615;51.826;5.692;2022-09-09T03:51:10;14.00;99.90
41926;DHT22;27615;51.826;5.692;2022-09-09T03:53:56;14.00;99.90
41926;DHT22;27615;51.826;5.692;2022-09-09T03:56:36;14.00;99.90
41926;DHT22;27615;51.826;5.692;2022-09-09T03:59:02;14.00;99.90
41926;DHT22;27615;51.826;5.692;2022-09-09T04:01:28;14.10;99.90
41926;DHT22;27615;51.826;5.692;2022-09-09T04:04:03;14.10;99.90
41926;DHT22;27615;51.826;5.692;2022-09-09T04:06:37;14.10;99.90
41926;DHT22;27615;51.826;5.692;2022-09-09T04:09:13;14.10;99.90
41926;DHT22;27615;51.826;5.692;2022-09-09T04:11:58;14.20;99.90
41926;DHT22;27615;51.826;5.692;2022-09-09T04:14:24;14.10;99.90
41926;DHT22;27615;51.826;5.692;2022-09-09T04:16:59;14.20;99.90
41926;DHT22;27615;51.826;5.692;2022-09-09T04:19:25;14.20;99.90
41926;DHT22;27615;51.826;5.692;2022-09-09T04:21:50;14.20;99.90
41926;DHT22;27615;51.826;5.692;2022-09-09T04:24:19;14.20;99.90
41926;DHT22;27615;51.826;5.692;2022-09-09T04:26:45;14.30;99.90
41926;DHT22;27615;51.826;5.692;2022-09-09T04:29:10;14.30;99.90
41926;DHT22;27615;51.826;5.692;2022-09-09T04:31:36;14.30;99.90
41926;DHT22;27615;51.826;5.692;2022-09-09T04:34:02;14.30;99.90
41926;DHT22;27615;51.826;5.692;2022-09-09T04:36:31;14.30;99.90
41926;DHT22;27615;51.826;5.692;2022-09-09T04:38:58;14.30;99.90
41926;DHT22;27615;51.826;5.692;2022-09-09T04:41:24;14.30;99.90
41926;DHT22;27615;51.826;5.692;2022-09-09T04:43:52;14.40;99.90
41926;DHT22;27615;51.826;5.692;2022-09-09T04:46:25;14.40;99.90
41926;DHT22;27615;51.826;5.692;2022-09-09T04:48:59;14.40;99.90
41926;DHT22;27615;51.826;5.692;2022-09-09T04:51:25;14.40;99.90
41926;DHT22;27615;51.826;5.692;2022-09-09T04:53:51;14.50;99.90
41926;DHT22;27615;51.826;5.692;2022-09-09T04:56:19;14.50;99.90
41926;DHT22;27615;51.826;5.692;2022-09-09T04:58:44;14.50;99.90
41926;DHT22;27615;51.826;5.692;2022-09-09T05:01:16;14.50;99.90
41926;DHT22;27615;51.826;5.692;2022-09-09T05:03:46;14.50;99.90
41926;DHT22;27615;51.826;5.692;2022-09-09T05:06:14;14.50;99.90
41926;DHT22;27615;51.826;5.692;2022-09-09T05:08:40;14.50;99.90
41926;DHT22;27615;51.826;5.692;2022-09-09T05:11:36;14.50;99.90
41926;DHT22;27615;51.826;5.692;2022-09-09T05:14:02;14.50;99.90
41926;DHT22;27615;51.826;5.692;2022-09-09T05:16:28;14.50;99.90
41926;DHT22;27615;51.826;5.692;2022-09-09T05:21:51;14.60;99.90
41926;DHT22;27615;51.826;5.692;2022-09-09T05:24:17;14.60;99.90
41926;DHT22;27615;51.826;5.692;2022-09-09T05:26:51;14.60;99.90
41926;DHT22;27615;51.826;5.692;2022-09-09T05:29:43;14.70;99.90
41926;DHT22;27615;51.826;5.692;2022-09-09T05:34:58;14.70;99.90
41926;DHT22;27615;51.826;5.692;2022-09-09T05:37:24;14.70;99.90
41926;DHT22;27615;51.826;5.692;2022-09-09T05:39:52;14.80;99.90
41926;DHT22;27615;51.826;5.692;2022-09-09T05:42:46;14.80;99.90
41926;DHT22;27615;51.826;5.692;2022-09-09T05:45:35;14.80;99.90
41926;DHT22;27615;51.826;5.692;2022-09-09T05:48:01;14.80;99.90
41926;DHT22;27615;51.826;5.692;2022-09-09T05:53:50;14.90;99.90
41926;DHT22;27615;51.826;5.692;2022-09-09T06:01:02;15.00;99.90
41926;DHT22;27615;51.826;5.692;2022-09-09T06:03:56;15.00;99.90
41926;DHT22;27615;51.826;5.692;2022-09-09T06:06:24;15.00;99.90
41926;DHT22;27615;51.826;5.692;2022-09-09T06:08:58;15.10;99.90
41926;DHT22;27615;51.826;5.692;2022-09-09T06:11:38;15.10;99.90
41926;DHT22;27615;51.826;5.692;2022-09-09T06:14:05;15.10;99.90
41926;DHT22;27615;51.826;5.692;2022-09-09T06:16:31;15.10;99.90
41926;DHT22;27615;51.826;5.692;2022-09-09T06:19:01;15.20;99.90
41926;DHT22;27615;51.826;5.692;2022-09-09T06:21:34;15.20;99.90
41926;DHT22;27615;51.826;5.692;2022-09-09T06:31:11;15.40;99.90
41926;DHT22;27615;51.826;5.692;2022-09-09T06:33:39;15.40;99.90
41926;DHT22;27615;51.826;5.692;2022-09-09T06:36:07;15.40;99.90
41926;DHT22;27615;51.826;5.692;2022-09-09T06:38:35;15.40;99.90
41926;DHT22;27615;51.826;5.692;2022-09-09T06:41:00;15.40;99.90
41926;DHT22;27615;51.826;5.692;2022-09-09T06:43:28;15.50;99.90
41926;DHT22;27615;51.826;5.692;2022-09-09T06:48:29;15.50;99.90
41926;DHT22;27615;51.826;5.692;2022-09-09T06:51:06;15.60;99.90
41926;DHT22;27615;51.826;5.692;2022-09-09T07:01:06;15.70;99.90
41926;DHT22;27615;51.826;5.692;2022-09-09T07:06:40;15.80;99.90
41926;DHT22;27615;51.826;5.692;2022-09-09T07:09:10;15.90;99.90
41926;DHT22;27615;51.826;5.692;2022-09-09T07:11:44;15.90;99.90
41926;DHT22;27615;51.826;5.692;2022-09-09T07:14:10;16.00;99.90
41926;DHT22;27615;51.826;5.692;2022-09-09T07:16:40;16.00;99.90
41926;DHT22;27615;51.826;5.692;2022-09-09T07:19:06;16.00;99.90
41926;DHT22;27615;51.826;5.692;2022-09-09T07:21:32;16.10;99.90
41926;DHT22;27615;51.826;5.692;2022-09-09T07:23:58;16.10;99.90
41926;DHT22;27615;51.826;5.692;2022-09-09T07:26:26;16.20;99.90
41926;DHT22;27615;51.826;5.692;2022-09-09T07:28:57;16.30;99.90
41926;DHT22;27615;51.826;5.692;2022-09-09T07:31:29;16.40;99.90
41926;DHT22;27615;51.826;5.692;2022-09-09T07:33:55;16.40;99.90
41926;DHT22;27615;51.826;5.692;2022-09-09T07:36:43;16.40;99.90
41926;DHT22;27615;51.826;5.692;2022-09-09T07:42:47;16.50;99.90
41926;DHT22;27615;51.826;5.692;2022-09-09T07:48:09;16.60;99.90
41926;DHT22;27615;51.826;5.692;2022-09-09T07:53:46;16.80;99.90
41926;DHT22;27615;51.826;5.692;2022-09-09T07:56:16;16.80;99.90
41926;DHT22;27615;51.826;5.692;2022-09-09T07:58:45;16.90;99.90
41926;DHT22;27615;51.826;5.692;2022-09-09T08:01:16;17.00;99.90
41926;DHT22;27615;51.826;5.692;2022-09-09T08:10:15;17.00;99.90
41926;DHT22;27615;51.826;5.692;2022-09-09T08:12:41;17.10;99.90
41926;DHT22;27615;51.826;5.692;2022-09-09T08:15:07;17.10;99.90
41926;DHT22;27615;51.826;5.692;2022-09-09T08:17:32;17.20;99.90
41926;DHT22;27615;51.826;5.692;2022-09-09T08:19:58;17.20;99.90
41926;DHT22;27615;51.826;5.692;2022-09-09T08:22:30;17.20;99.90
41926;DHT22;27615;51.826;5.692;2022-09-09T08:24:55;17.30;99.90
41926;DHT22;27615;51.826;5.692;2022-09-09T08:27:21;17.40;99.90
41926;DHT22;27615;51.826;5.692;2022-09-09T08:29:48;17.40;99.90
41926;DHT22;27615;51.826;5.692;2022-09-09T08:32:13;17.50;99.90
41926;DHT22;27615;51.826;5.692;2022-09-09T08:34:39;17.50;99.90
41926;DHT22;27615;51.826;5.692;2022-09-09T08:37:06;17.50;99.90
41926;DHT22;27615;51.826;5.692;2022-09-09T08:39:31;17.60;99.90
41926;DHT22;27615;51.826;5.692;2022-09-09T08:48:37;17.60;99.30
41926;DHT22;27615;51.826;5.692;2022-09-09T08:51:06;17.60;98.90
41926;DHT22;27615;51.826;5.692;2022-09-09T08:53:47;17.50;98.80
41926;DHT22;27615;51.826;5.692;2022-09-09T08:56:18;17.50;98.60
41926;DHT22;27615;51.826;5.692;2022-09-09T08:58:48;17.40;99.00
41926;DHT22;27615;51.826;5.692;2022-09-09T09:12:40;17.50;98.80
41926;DHT22;27615;51.826;5.692;2022-09-09T09:15:25;17.50;98.90
41926;DHT22;27615;51.826;5.692;2022-09-09T09:17:51;17.60;98.50
41926;DHT22;27615;51.826;5.692;2022-09-09T09:20:23;17.60;98.50
41926;DHT22;27615;51.826;5.692;2022-09-09T09:22:55;17.70;98.90
41926;DHT22;27615;51.826;5.692;2022-09-09T09:25:32;17.70;98.60
41926;DHT22;27615;51.826;5.692;2022-09-09T09:30:37;17.80;97.90
41926;DHT22;27615;51.826;5.692;2022-09-09T09:33:21;17.80;98.10
41926;DHT22;27615;51.826;5.692;2022-09-09T09:35:49;17.90;98.10
41926;DHT22;27615;51.826;5.692;2022-09-09T09:38:22;17.90;97.60
41926;DHT22;27615;51.826;5.692;2022-09-09T09:40:55;17.90;97.90
41926;DHT22;27615;51.826;5.692;2022-09-09T09:43:39;17.90;97.90
41926;DHT22;27615;51.826;5.692;2022-09-09T09:50:28;17.90;97.20
41926;DHT22;27615;51.826;5.692;2022-09-09T09:52:56;17.90;97.70
41926;DHT22;27615;51.826;5.692;2022-09-09T09:55:23;17.90;97.50
41926;DHT22;27615;51.826;5.692;2022-09-09T09:57:49;17.80;97.10
41926;DHT22;27615;51.826;5.692;2022-09-09T10:00:22;17.80;97.20
41926;DHT22;27615;51.826;5.692;2022-09-09T10:02:49;17.90;97.40
41926;DHT22;27615;51.826;5.692;2022-09-09T10:05:22;17.90;97.30
41926;DHT22;27615;51.826;5.692;2022-09-09T10:08:11;17.90;97.50
41926;DHT22;27615;51.826;5.692;2022-09-09T10:13:24;17.90;98.20
41926;DHT22;27615;51.826;5.692;2022-09-09T10:16:34;17.90;97.60
41926;DHT22;27615;51.826;5.692;2022-09-09T10:22:19;17.90;97.10
41926;DHT22;27615;51.826;5.692;2022-09-09T10:27:20;17.90;98.00
41926;DHT22;27615;51.826;5.692;2022-09-09T10:30:22;18.00;97.90
41926;DHT22;27615;51.826;5.692;2022-09-09T10:36:22;18.10;97.30
41926;DHT22;27615;51.826;5.692;2022-09-09T10:39:01;18.00;97.60
41926;DHT22;27615;51.826;5.692;2022-09-09T10:47:26;18.00;97.50
41926;DHT22;27615;51.826;5.692;2022-09-09T10:53:11;17.90;98.20
41926;DHT22;27615;51.826;5.692;2022-09-09T10:55:43;17.70;99.60
41926;DHT22;27615;51.826;5.692;2022-09-09T10:58:25;17.50;99.90
41926;DHT22;27615;51.826;5.692;2022-09-09T11:00:57;17.30;99.90
41926;DHT22;27615;51.826;5.692;2022-09-09T11:03:39;17.30;99.90
41926;DHT22;27615;51.826;5.692;2022-09-09T11:13:42;17.40;99.90
41926;DHT22;27615;51.826;5.692;2022-09-09T11:18:41;17.50;99.90
41926;DHT22;27615;51.826;5.692;2022-09-09T11:21:15;17.60;99.90
41926;DHT22;27615;51.826;5.692;2022-09-09T11:23:48;17.60;99.90
41926;DHT22;27615;51.826;5.692;2022-09-09T11:26:43;17.60;99.90
41926;DHT22;27615;51.826;5.692;2022-09-09T11:32:27;17.50;99.90
41926;DHT22;27615;51.826;5.692;2022-09-09T11:40:19;17.50;99.90
41926;DHT22;27615;51.826;5.692;2022-09-09T11:42:46;17.60;99.90
41926;DHT22;27615;51.826;5.692;2022-09-09T11:45:23;17.60;99.90
41926;DHT22;27615;51.826;5.692;2022-09-09T11:47:55;17.60;99.90
41926;DHT22;27615;51.826;5.692;2022-09-09T11:52:48;17.50;99.90
41926;DHT22;27615;51.826;5.692;2022-09-09T11:55:34;17.40;99.90
41926;DHT22;27615;51.826;5.692;2022-09-09T12:00:40;17.40;99.90
41926;DHT22;27615;51.826;5.692;2022-09-09T12:03:36;17.40;99.90
41926;DHT22;27615;51.826;5.692;2022-09-09T12:06:20;17.40;99.90
41926;DHT22;27615;51.826;5.692;2022-09-09T12:09:06;17.40;99.90
41926;DHT22;27615;51.826;5.692;2022-09-09T12:11:33;17.50;99.90
41926;DHT22;27615;51.826;5.692;2022-09-09T12:14:00;17.50;99.90
41926;DHT22;27615;51.826;5.692;2022-09-09T12:16:37;17.50;99.90
41926;DHT22;27615;51.826;5.692;2022-09-09T12:22:02;17.70;99.90
41926;DHT22;27615;51.826;5.692;2022-09-09T12:24:41;17.90;99.90
41926;DHT22;27615;51.826;5.692;2022-09-09T12:27:23;17.90;99.90
41926;DHT22;27615;51.826;5.692;2022-09-09T12:32:26;17.90;99.90
41926;DHT22;27615;51.826;5.692;2022-09-09T12:35:18;17.90;99.90
41926;DHT22;27615;51.826;5.692;2022-09-09T12:37:52;17.90;99.90
41926;DHT22;27615;51.826;5.692;2022-09-09T12:40:25;17.80;99.90
41926;DHT22;27615;51.826;5.692;2022-09-09T12:42:51;17.80;99.90
41926;DHT22;27615;51.826;5.692;2022-09-09T12:45:20;17.70;99.90
41926;DHT22;27615;51.826;5.692;2022-09-09T12:50:20;17.70;99.90
41926;DHT22;27615;51.826;5.692;2022-09-09T12:52:47;17.70;99.90
41926;DHT22;27615;51.826;5.692;2022-09-09T12:55:23;17.70;99.90
41926;DHT22;27615;51.826;5.692;2022-09-09T12:57:51;17.70;99.90
41926;DHT22;27615;51.826;5.692;2022-09-09T13:00:22;18.00;99.90
41926;DHT22;27615;51.826;5.692;2022-09-09T13:02:56;18.20;99.90
41926;DHT22;27615;51.826;5.692;2022-09-09T13:05:43;18.30;99.90
41926;DHT22;27615;51.826;5.692;2022-09-09T13:08:11;18.30;99.80
41926;DHT22;27615;51.826;5.692;2022-09-09T13:13:17;18.40;99.90
41926;DHT22;27615;51.826;5.692;2022-09-09T13:15:50;18.70;99.90
41926;DHT22;27615;51.826;5.692;2022-09-09T13:18:24;18.80;99.50
41926;DHT22;27615;51.826;5.692;2022-09-09T13:20:51;18.80;98.80
41926;DHT22;27615;51.826;5.692;2022-09-09T13:23:19;18.90;98.50
41926;DHT22;27615;51.826;5.692;2022-09-09T13:26:00;18.90;98.40
41926;DHT22;27615;51.826;5.692;2022-09-09T13:28:28;18.90;98.10
41926;DHT22;27615;51.826;5.692;2022-09-09T13:31:02;18.80;98.30
41926;DHT22;27615;51.826;5.692;2022-09-09T13:33:38;18.70;98.40
41926;DHT22;27615;51.826;5.692;2022-09-09T13:36:07;18.80;98.60
41926;DHT22;27615;51.826;5.692;2022-09-09T13:38:37;18.90;98.40
41926;DHT22;27615;51.826;5.692;2022-09-09T13:41:06;19.00;97.70
41926;DHT22;27615;51.826;5.692;2022-09-09T13:43:37;19.00;98.00
41926;DHT22;27615;51.826;5.692;2022-09-09T13:46:28;19.00;97.60
41926;DHT22;27615;51.826;5.692;2022-09-09T13:49:00;19.00;97.80
41926;DHT22;27615;51.826;5.692;2022-09-09T13:51:34;18.90;97.90
41926;DHT22;27615;51.826;5.692;2022-09-09T13:54:00;18.90;98.20
41926;DHT22;27615;51.826;5.692;2022-09-09T13:56:26;18.90;98.90
41926;DHT22;27615;51.826;5.692;2022-09-09T13:58:52;18.90;98.60
41926;DHT22;27615;51.826;5.692;2022-09-09T14:01:17;19.00;98.60
41926;DHT22;27615;51.826;5.692;2022-09-09T14:03:43;18.90;98.50
41926;DHT22;27615;51.826;5.692;2022-09-09T14:06:10;18.90;98.20
41926;DHT22;27615;51.826;5.692;2022-09-09T14:08:38;18.80;98.10
41926;DHT22;27615;51.826;5.692;2022-09-09T14:11:10;18.90;98.20
41926;DHT22;27615;51.826;5.692;2022-09-09T14:13:38;18.90;98.30
41926;DHT22;27615;51.826;5.692;2022-09-09T14:16:03;18.90;98.70
41926;DHT22;27615;51.826;5.692;2022-09-09T14:18:29;18.90;98.90
41926;DHT22;27615;51.826;5.692;2022-09-09T14:20:54;18.90;98.90
41926;DHT22;27615;51.826;5.692;2022-09-09T14:23:20;18.80;98.40
41926;DHT22;27615;51.826;5.692;2022-09-09T14:25:47;18.80;98.40
41926;DHT22;27615;51.826;5.692;2022-09-09T14:28:14;18.80;98.20
41926;DHT22;27615;51.826;5.692;2022-09-09T14:30:41;18.80;98.40
41926;DHT22;27615;51.826;5.692;2022-09-09T14:33:08;18.80;98.80
41926;DHT22;27615;51.826;5.692;2022-09-09T14:35:35;18.80;98.90
41926;DHT22;27615;51.826;5.692;2022-09-09T14:38:02;18.90;98.90
41926;DHT22;27615;51.826;5.692;2022-09-09T14:40:28;18.90;99.20
41926;DHT22;27615;51.826;5.692;2022-09-09T14:42:55;19.00;99.20
41926;DHT22;27615;51.826;5.692;2022-09-09T14:45:22;19.00;98.90
41926;DHT22;27615;51.826;5.692;2022-09-09T14:47:50;19.10;99.00
41926;DHT22;27615;51.826;5.692;2022-09-09T14:50:16;19.30;99.00
41926;DHT22;27615;51.826;5.692;2022-09-09T14:52:42;19.50;98.20
41926;DHT22;27615;51.826;5.692;2022-09-09T14:55:08;19.60;97.50
41926;DHT22;27615;51.826;5.692;2022-09-09T14:57:33;19.70;97.30
41926;DHT22;27615;51.826;5.692;2022-09-09T15:00:01;19.70;96.80
41926;DHT22;27615;51.826;5.692;2022-09-09T15:02:27;19.60;95.60
41926;DHT22;27615;51.826;5.692;2022-09-09T15:04:57;19.60;95.60
41926;DHT22;27615;51.826;5.692;2022-09-09T15:07:25;19.50;95.90
41926;DHT22;27615;51.826;5.692;2022-09-09T15:09:52;19.50;95.10
41926;DHT22;27615;51.826;5.692;2022-09-09T15:12:18;19.50;95.20
41926;DHT22;27615;51.826;5.692;2022-09-09T15:14:45;19.60;95.40
41926;DHT22;27615;51.826;5.692;2022-09-09T15:17:10;19.70;95.40
41926;DHT22;27615;51.826;5.692;2022-09-09T15:19:39;19.80;95.20
41926;DHT22;27615;51.826;5.692;2022-09-09T15:22:05;20.00;94.80
41926;DHT22;27615;51.826;5.692;2022-09-09T15:24:32;20.30;94.60
41926;DHT22;27615;51.826;5.692;2022-09-09T15:26:58;20.30;94.20
41926;DHT22;27615;51.826;5.692;2022-09-09T15:29:24;20.20;93.70
41926;DHT22;27615;51.826;5.692;2022-09-09T15:31:49;20.00;93.80
41926;DHT22;27615;51.826;5.692;2022-09-09T15:34:15;19.90;94.00
41926;DHT22;27615;51.826;5.692;2022-09-09T15:36:43;19.70;94.40
41926;DHT22;27615;51.826;5.692;2022-09-09T15:39:14;19.60;94.30
41926;DHT22;27615;51.826;5.692;2022-09-09T15:41:47;19.50;94.70
41926;DHT22;27615;51.826;5.692;2022-09-09T15:44:13;19.50;95.10
41926;DHT22;27615;51.826;5.692;2022-09-09T15:46:43;19.50;95.40
41926;DHT22;27615;51.826;5.692;2022-09-09T15:49:15;19.50;95.60
41926;DHT22;27615;51.826;5.692;2022-09-09T15:51:44;19.50;95.50
41926;DHT22;27615;51.826;5.692;2022-09-09T15:54:15;19.40;95.40
41926;DHT22;27615;51.826;5.692;2022-09-09T15:56:46;19.30;95.60
41926;DHT22;27615;51.826;5.692;2022-09-09T15:59:13;19.20;95.90
41926;DHT22;27615;51.826;5.692;2022-09-09T16:01:40;19.10;96.20
41926;DHT22;27615;51.826;5.692;2022-09-09T16:04:07;18.90;96.60
41926;DHT22;27615;51.826;5.692;2022-09-09T16:06:33;18.70;96.80
41926;DHT22;27615;51.826;5.692;2022-09-09T16:08:59;18.70;97.00
41926;DHT22;27615;51.826;5.692;2022-09-09T16:11:30;18.60;97.00
41926;DHT22;27615;51.826;5.692;2022-09-09T16:13:56;18.50;97.10
41926;DHT22;27615;51.826;5.692;2022-09-09T16:16:25;18.30;97.60
41926;DHT22;27615;51.826;5.692;2022-09-09T16:18:53;18.20;97.90
41926;DHT22;27615;51.826;5.692;2022-09-09T16:21:30;18.10;98.50
41926;DHT22;27615;51.826;5.692;2022-09-09T16:23:58;17.90;98.80
41926;DHT22;27615;51.826;5.692;2022-09-09T16:26:25;17.70;99.30
41926;DHT22;27615;51.826;5.692;2022-09-09T16:28:51;17.70;99.90
41926;DHT22;27615;51.826;5.692;2022-09-09T16:31:19;17.60;99.90
41926;DHT22;27615;51.826;5.692;2022-09-09T16:33:45;17.60;99.90
41926;DHT22;27615;51.826;5.692;2022-09-09T16:36:13;17.60;99.90
41926;DHT22;27615;51.826;5.692;2022-09-09T16:38:39;17.60;99.90
41926;DHT22;27615;51.826;5.692;2022-09-09T16:41:07;17.50;99.90
41926;DHT22;27615;51.826;5.692;2022-09-09T16:43:34;17.50;99.90
41926;DHT22;27615;51.826;5.692;2022-09-09T16:46:01;17.50;99.90
41926;DHT22;27615;51.826;5.692;2022-09-09T16:48:31;17.50;99.90
41926;DHT22;27615;51.826;5.692;2022-09-09T16:51:05;17.50;99.90
41926;DHT22;27615;51.826;5.692;2022-09-09T16:53:34;17.50;99.90
41926;DHT22;27615;51.826;5.692;2022-09-09T16:56:07;17.50;99.90
41926;DHT22;27615;51.826;5.692;2022-09-09T16:58:34;17.60;99.90
41926;DHT22;27615;51.826;5.692;2022-09-09T17:01:00;17.50;99.90
41926;DHT22;27615;51.826;5.692;2022-09-09T17:03:27;17.50;99.90
41926;DHT22;27615;51.826;5.692;2022-09-09T17:05:52;17.50;99.90
41926;DHT22;27615;51.826;5.692;2022-09-09T17:08:18;17.50;99.90
41926;DHT22;27615;51.826;5.692;2022-09-09T17:10:43;17.50;99.90
41926;DHT22;27615;51.826;5.692;2022-09-09T17:13:09;17.40;99.90
41926;DHT22;27615;51.826;5.692;2022-09-09T17:15:39;17.50;99.90
41926;DHT22;27615;51.826;5.692;2022-09-09T17:18:08;17.50;99.90
41926;DHT22;27615;51.826;5.692;2022-09-09T17:20:36;17.50;99.90
41926;DHT22;27615;51.826;5.692;2022-09-09T17:23:02;17.60;99.90
41926;DHT22;27615;51.826;5.692;2022-09-09T17:25:27;17.60;99.90
41926;DHT22;27615;51.826;5.692;2022-09-09T17:27:53;17.60;99.90
41926;DHT22;27615;51.826;5.692;2022-09-09T17:30:18;17.50;99.90
41926;DHT22;27615;51.826;5.692;2022-09-09T17:32:44;17.40;99.90
41926;DHT22;27615;51.826;5.692;2022-09-09T17:35:11;17.30;99.90
41926;DHT22;27615;51.826;5.692;2022-09-09T17:37:37;17.20;99.90
41926;DHT22;27615;51.826;5.692;2022-09-09T17:40:02;17.20;99.90
41926;DHT22;27615;51.826;5.692;2022-09-09T17:42:28;17.10;99.90
41926;DHT22;27615;51.826;5.692;2022-09-09T17:44:54;17.00;99.90
41926;DHT22;27615;51.826;5.692;2022-09-09T17:47:20;17.00;99.90
41926;DHT22;27615;51.826;5.692;2022-09-09T17:49:45;17.00;99.90
41926;DHT22;27615;51.826;5.692;2022-09-09T17:52:11;16.90;99.90
41926;DHT22;27615;51.826;5.692;2022-09-09T17:54:37;16.90;99.90
41926;DHT22;27615;51.826;5.692;2022-09-09T17:57:02;16.90;99.90
41926;DHT22;27615;51.826;5.692;2022-09-09T17:59:28;16.80;99.90
41926;DHT22;27615;51.826;5.692;2022-09-09T18:01:54;16.80;99.90
41926;DHT22;27615;51.826;5.692;2022-09-09T18:04:19;16.80;99.90
41926;DHT22;27615;51.826;5.692;2022-09-09T18:06:47;16.70;99.90
41926;DHT22;27615;51.826;5.692;2022-09-09T18:09:19;16.70;99.90
41926;DHT22;27615;51.826;5.692;2022-09-09T18:11:47;16.60;99.90
41926;DHT22;27615;51.826;5.692;2022-09-09T18:14:20;16.60;99.90
41926;DHT22;27615;51.826;5.692;2022-09-09T18:16:47;16.60;99.90
41926;DHT22;27615;51.826;5.692;2022-09-09T18:19:15;16.50;99.90
41926;DHT22;27615;51.826;5.692;2022-09-09T18:21:42;16.50;99.90
41926;DHT22;27615;51.826;5.692;2022-09-09T18:24:10;16.40;99.90
41926;DHT22;27615;51.826;5.692;2022-09-09T18:26:36;16.40;99.90
41926;DHT22;27615;51.826;5.692;2022-09-09T18:29:06;16.40;99.90
41926;DHT22;27615;51.826;5.692;2022-09-09T18:31:33;16.30;99.90
41926;DHT22;27615;51.826;5.692;2022-09-09T18:34:00;16.30;99.90
41926;DHT22;27615;51.826;5.692;2022-09-09T18:36:33;16.30;99.90
41926;DHT22;27615;51.826;5.692;2022-09-09T18:39:00;16.30;99.90